createdAt,value
2023-02-03T00:01:45.406Z,6.40
2023-02-03T00:04:12.265Z,6.40
2023-02-03T00:06:39.066Z,6.40
2023-02-03T00:09:05.875Z,6.40
2023-02-03T00:11:32.693Z,6.40
2023-02-03T00:13:59.501Z,6.30
2023-02-03T00:16:26.214Z,6.30
2023-02-03T00:18:53.062Z,6.40
2023-02-03T00:21:20.048Z,6.30
2023-02-03T00:23:46.805Z,6.40
2023-02-03T00:26:14.813Z,6.40
2023-02-03T00:28:42.809Z,6.30
2023-02-03T00:31:20.185Z,6.40
2023-02-03T00:33:47.555Z,6.40
2023-02-03T00:36:14.396Z,6.30
2023-02-03T00:38:41.074Z,6.40
2023-02-03T00:41:07.777Z,6.40
2023-02-03T00:43:34.796Z,6.40
2023-02-03T00:46:01.557Z,6.40
2023-02-03T00:48:28.447Z,6.40
2023-02-03T00:50:55.148Z,6.40
2023-02-03T00:53:21.899Z,6.40
2023-02-03T00:55:48.626Z,6.40
2023-02-03T00:58:15.316Z,6.40
2023-02-03T01:00:41.996Z,6.40
2023-02-03T01:03:08.732Z,6.40
2023-02-03T01:05:35.466Z,6.40
2023-02-03T01:08:02.363Z,6.40
2023-02-03T01:10:29.553Z,6.40
2023-02-03T01:12:56.340Z,6.40
2023-02-03T01:15:23.016Z,6.40
2023-02-03T01:17:49.682Z,6.40
2023-02-03T01:20:17.944Z,6.40
2023-02-03T01:22:44.608Z,6.40
2023-02-03T01:25:11.285Z,6.40
2023-02-03T01:27:38.027Z,6.40
2023-02-03T01:30:05.093Z,6.40
2023-02-03T01:32:31.818Z,6.40
2023-02-03T01:34:58.564Z,6.40
2023-02-03T01:37:25.237Z,6.40
2023-02-03T01:39:53.565Z,6.40
2023-02-03T01:42:20.223Z,6.40
2023-02-03T01:44:48.222Z,6.40
2023-02-03T01:47:25.295Z,6.40
2023-02-03T01:49:56.682Z,6.40
2023-02-03T01:52:23.664Z,6.40
2023-02-03T01:54:50.497Z,6.40
2023-02-03T01:57:20.644Z,6.40
2023-02-03T01:59:47.654Z,6.40
2023-02-03T02:02:14.346Z,6.40
2023-02-03T02:04:55.901Z,6.40
2023-02-03T02:07:23.373Z,6.40
2023-02-03T02:09:50.063Z,6.40
2023-02-03T02:12:16.754Z,6.40
2023-02-03T02:14:43.509Z,6.40
2023-02-03T02:17:37.106Z,6.40
2023-02-03T02:20:15.911Z,6.40
2023-02-03T02:22:54.483Z,6.40
2023-02-03T02:25:43.283Z,6.40
2023-02-03T02:28:38.304Z,6.40
2023-02-03T02:31:36.225Z,6.40
2023-02-03T02:34:24.682Z,6.40
2023-02-03T02:37:07.550Z,6.40
2023-02-03T02:39:40.173Z,6.50
2023-02-03T02:42:08.906Z,6.40
2023-02-03T02:44:41.196Z,6.40
2023-02-03T02:47:21.377Z,6.40
2023-02-03T02:50:17.493Z,6.40
2023-02-03T02:52:44.385Z,6.40
2023-02-03T02:55:16.609Z,6.40
2023-02-03T02:57:43.481Z,6.40
2023-02-03T03:00:10.754Z,6.40
2023-02-03T03:02:37.462Z,6.40
2023-02-03T03:05:05.458Z,6.40
2023-02-03T03:07:41.386Z,6.40
2023-02-03T03:10:10.078Z,6.40
2023-02-03T03:12:38.150Z,6.40
2023-02-03T03:15:07.688Z,6.40
2023-02-03T03:17:37.540Z,6.40
2023-02-03T03:20:07.379Z,6.40
2023-02-03T03:22:36.298Z,6.40
2023-02-03T03:25:24.731Z,6.40
2023-02-03T03:28:01.514Z,6.40
2023-02-03T03:30:32.107Z,6.40
2023-02-03T03:32:58.921Z,6.40
2023-02-03T03:35:28.269Z,6.40
2023-02-03T03:38:00.299Z,6.40
2023-02-03T03:40:28.277Z,6.40
2023-02-03T03:43:01.241Z,6.40
2023-02-03T03:45:38.127Z,6.40
2023-02-03T03:48:12.334Z,6.40
2023-02-03T03:50:42.389Z,6.40
2023-02-03T03:53:09.121Z,6.40
2023-02-03T03:55:35.915Z,6.40
2023-02-03T03:58:10.466Z,6.40
2023-02-03T04:00:38.639Z,6.40
2023-02-03T04:03:25.058Z,6.40
2023-02-03T04:05:53.272Z,6.40
2023-02-03T04:08:19.957Z,6.40
2023-02-03T04:10:46.799Z,6.40
2023-02-03T04:13:15.939Z,6.40
2023-02-03T04:15:42.826Z,6.40
2023-02-03T04:18:10.897Z,6.40
2023-02-03T04:20:37.622Z,6.40
2023-02-03T04:23:04.539Z,6.40
2023-02-03T04:25:31.249Z,6.40
2023-02-03T04:27:58.029Z,6.40
2023-02-03T04:30:24.786Z,6.40
2023-02-03T04:32:51.514Z,6.40
2023-02-03T04:35:18.352Z,6.40
2023-02-03T04:37:45.248Z,6.40
2023-02-03T04:40:12.207Z,6.40
2023-02-03T04:42:39.590Z,6.40
2023-02-03T04:45:07.735Z,6.40
2023-02-03T04:47:34.506Z,6.40
2023-02-03T04:50:01.222Z,6.40
2023-02-03T04:52:28.116Z,6.40
2023-02-03T04:54:54.773Z,6.40
2023-02-03T04:57:21.598Z,6.40
2023-02-03T04:59:48.271Z,6.40
2023-02-03T05:02:15.067Z,6.40
2023-02-03T05:04:42.867Z,6.40
2023-02-03T05:07:09.941Z,6.40
2023-02-03T05:09:36.649Z,6.40
2023-02-03T05:12:03.496Z,6.40
2023-02-03T05:14:30.180Z,6.40
2023-02-03T05:16:56.901Z,6.30
2023-02-03T05:19:23.772Z,6.40
2023-02-03T05:21:51.248Z,6.40
2023-02-03T05:24:18.031Z,6.30
2023-02-03T05:26:44.842Z,6.30
2023-02-03T05:29:11.910Z,6.30
2023-02-03T05:31:38.712Z,6.30
2023-02-03T05:34:05.428Z,6.30
2023-02-03T05:36:32.167Z,6.40
2023-02-03T05:38:58.938Z,6.30
2023-02-03T05:41:44.114Z,6.30
2023-02-03T05:44:11.044Z,6.30
2023-02-03T05:46:37.825Z,6.30
2023-02-03T05:49:04.545Z,6.30
2023-02-03T05:51:31.409Z,6.30
2023-02-03T05:53:58.193Z,6.30
2023-02-03T05:56:25.257Z,6.30
2023-02-03T05:58:53.558Z,6.30
2023-02-03T06:01:20.561Z,6.30
2023-02-03T06:03:47.710Z,6.30
2023-02-03T06:06:14.582Z,6.30
2023-02-03T06:08:41.346Z,6.30
2023-02-03T06:11:08.028Z,6.30
2023-02-03T06:13:34.715Z,6.30
2023-02-03T06:16:01.493Z,6.30
2023-02-03T06:18:28.265Z,6.40
2023-02-03T06:20:54.998Z,6.40
2023-02-03T06:23:21.815Z,6.30
2023-02-03T06:25:48.815Z,6.30
2023-02-03T06:28:16.219Z,6.40
2023-02-03T06:30:43.391Z,6.40
2023-02-03T06:33:10.239Z,6.40
2023-02-03T06:35:36.997Z,6.40
2023-02-03T06:38:03.684Z,6.40
2023-02-03T06:40:30.940Z,6.40
2023-02-03T06:42:57.882Z,6.40
2023-02-03T06:45:24.887Z,6.40
2023-02-03T06:47:51.805Z,6.40
2023-02-03T06:50:18.741Z,6.40
2023-02-03T06:52:45.426Z,6.50
2023-02-03T06:55:12.144Z,6.40
2023-02-03T06:57:54.306Z,6.40
2023-02-03T07:00:24.784Z,6.40
2023-02-03T07:02:55.401Z,6.40
2023-02-03T07:05:22.993Z,6.50
2023-02-03T07:07:50.210Z,6.50
2023-02-03T07:10:17.208Z,6.50
2023-02-03T07:12:44.344Z,6.50
2023-02-03T07:15:11.782Z,6.50
2023-02-03T07:17:38.541Z,6.50
2023-02-03T07:20:05.894Z,6.50
2023-02-03T07:22:32.632Z,6.50
2023-02-03T07:24:59.339Z,6.50
2023-02-03T07:27:27.920Z,6.50
2023-02-03T07:29:54.650Z,6.50
2023-02-03T07:32:21.378Z,6.50
2023-02-03T07:34:48.032Z,6.50
2023-02-03T07:37:14.748Z,6.50
2023-02-03T07:39:42.244Z,6.50
2023-02-03T07:42:08.971Z,6.50
2023-02-03T07:44:38.319Z,6.50
2023-02-03T07:47:05.004Z,6.40
2023-02-03T07:49:31.668Z,6.40
2023-02-03T07:51:58.386Z,6.50
2023-02-03T07:54:25.112Z,6.40
2023-02-03T07:56:52.124Z,6.40
2023-02-03T07:59:18.823Z,6.50
2023-02-03T08:01:45.520Z,6.50
2023-02-03T08:04:16.376Z,6.50
2023-02-03T08:06:43.742Z,6.50
2023-02-03T08:09:10.426Z,6.50
2023-02-03T08:11:37.111Z,6.50
2023-02-03T08:14:04.029Z,6.50
2023-02-03T08:16:30.846Z,6.50
2023-02-03T08:18:58.244Z,6.60
2023-02-03T08:21:24.968Z,6.60
2023-02-03T08:23:51.653Z,6.60
2023-02-03T08:26:18.417Z,6.60
2023-02-03T08:28:49.294Z,6.70
2023-02-03T08:31:16.284Z,6.70
2023-02-03T08:33:43.130Z,6.70
2023-02-03T08:36:11.236Z,6.70
2023-02-03T08:38:38.690Z,6.70
2023-02-03T08:41:09.883Z,6.70
2023-02-03T08:43:36.824Z,6.70
2023-02-03T08:46:05.003Z,6.70
2023-02-03T08:48:31.757Z,6.70
2023-02-03T08:50:58.529Z,6.70
2023-02-03T08:53:25.245Z,6.70
2023-02-03T08:55:51.906Z,6.70
2023-02-03T08:58:18.571Z,6.70
2023-02-03T09:00:45.356Z,6.70
2023-02-03T09:03:12.043Z,6.70
2023-02-03T09:05:38.811Z,6.70
2023-02-03T09:08:05.764Z,6.70
2023-02-03T09:10:32.505Z,6.80
2023-02-03T09:12:59.157Z,6.80
2023-02-03T09:15:27.055Z,6.90
2023-02-03T09:17:55.307Z,6.90
2023-02-03T09:20:22.043Z,6.90
2023-02-03T09:22:48.779Z,7.00
2023-02-03T09:25:16.237Z,6.90
2023-02-03T09:27:43.011Z,7.00
2023-02-03T09:30:10.410Z,7.00
2023-02-03T09:32:37.052Z,6.90
2023-02-03T09:35:03.863Z,6.90
2023-02-03T09:37:30.592Z,6.90
2023-02-03T09:39:58.924Z,6.90
2023-02-03T09:42:51.045Z,6.90
2023-02-03T09:45:18.427Z,6.90
2023-02-03T09:47:45.387Z,6.90
2023-02-03T09:50:19.953Z,6.90
2023-02-03T09:52:46.698Z,6.90
2023-02-03T09:55:37.054Z,6.90
2023-02-03T09:58:13.827Z,6.90
2023-02-03T10:00:45.864Z,7.00
2023-02-03T10:03:37.187Z,7.00
2023-02-03T10:06:07.733Z,6.90
2023-02-03T10:08:49.501Z,7.00
2023-02-03T10:11:19.360Z,7.00
2023-02-03T10:14:05.147Z,7.10
2023-02-03T10:16:37.864Z,7.10
2023-02-03T10:19:20.600Z,7.20
2023-02-03T10:22:05.660Z,7.20
2023-02-03T10:24:46.877Z,7.20
2023-02-03T10:27:23.485Z,7.10
2023-02-03T10:30:24.648Z,7.10
2023-02-03T10:32:58.135Z,7.10
2023-02-03T10:35:28.764Z,7.10
2023-02-03T10:37:56.525Z,7.10
2023-02-03T10:40:23.727Z,7.10
2023-02-03T10:43:26.573Z,7.10
2023-02-03T10:45:53.328Z,7.10
2023-02-03T10:48:20.178Z,7.10
2023-02-03T10:50:48.878Z,7.10
2023-02-03T10:53:18.606Z,7.10
2023-02-03T10:56:00.674Z,7.10
2023-02-03T10:58:28.070Z,7.20
2023-02-03T11:01:15.678Z,7.30
2023-02-03T11:03:44.408Z,7.40
2023-02-03T11:06:16.095Z,7.40
2023-02-03T11:08:47.774Z,7.40
2023-02-03T11:11:37.225Z,7.50
2023-02-03T11:14:04.042Z,7.60
2023-02-03T11:16:32.087Z,7.60
2023-02-03T11:19:04.871Z,7.60
2023-02-03T11:21:37.657Z,7.70
2023-02-03T11:24:32.481Z,7.80
2023-02-03T11:27:05.917Z,7.80
2023-02-03T11:29:34.419Z,7.90
2023-02-03T11:32:07.183Z,8.00
2023-02-03T11:34:43.310Z,7.90
2023-02-03T11:37:31.193Z,7.90
2023-02-03T11:40:07.808Z,7.90
2023-02-03T11:42:35.702Z,7.80
2023-02-03T11:45:17.438Z,7.80
2023-02-03T11:48:14.504Z,7.70
2023-02-03T11:51:00.651Z,7.70
2023-02-03T11:53:54.981Z,7.70
2023-02-03T11:56:41.209Z,7.70
2023-02-03T11:59:29.869Z,7.60
2023-02-03T12:02:02.451Z,7.60
2023-02-03T12:04:49.531Z,7.60
2023-02-03T12:07:48.100Z,7.60
2023-02-03T12:10:33.036Z,7.60
2023-02-03T12:13:17.636Z,7.60
2023-02-03T12:16:10.251Z,7.60
2023-02-03T12:18:52.949Z,7.60
2023-02-03T12:21:34.319Z,7.60
2023-02-03T12:24:05.932Z,7.60
2023-02-03T12:26:50.826Z,7.60
2023-02-03T12:29:21.248Z,7.60
2023-02-03T12:32:16.643Z,7.60
2023-02-03T12:35:21.161Z,7.60
2023-02-03T12:38:01.454Z,7.50
2023-02-03T12:40:47.676Z,7.60
2023-02-03T12:43:19.431Z,7.50
2023-02-03T12:45:57.189Z,7.50
2023-02-03T12:48:27.355Z,7.50
2023-02-03T12:50:59.762Z,7.50
2023-02-03T12:53:35.056Z,7.50
2023-02-03T12:56:14.274Z,7.50
2023-02-03T12:59:17.274Z,7.50
2023-02-03T13:01:57.894Z,7.50
2023-02-03T13:04:43.339Z,7.50
2023-02-03T13:07:21.572Z,7.50
2023-02-03T13:09:54.454Z,7.50
2023-02-03T13:12:36.094Z,7.60
2023-02-03T13:15:26.124Z,7.50
2023-02-03T13:17:57.607Z,7.50
2023-02-03T13:20:26.969Z,7.60
2023-02-03T13:22:53.863Z,7.60
2023-02-03T13:25:32.532Z,7.60
2023-02-03T13:28:08.109Z,7.60
2023-02-03T13:31:01.749Z,7.60
2023-02-03T13:33:47.125Z,7.70
2023-02-03T13:36:41.572Z,7.70
2023-02-03T13:39:36.954Z,7.80
2023-02-03T13:42:23.864Z,7.80
2023-02-03T13:45:06.693Z,7.80
2023-02-03T13:47:33.451Z,7.80
2023-02-03T13:50:01.982Z,7.90
2023-02-03T13:52:36.832Z,7.90
2023-02-03T13:55:03.616Z,8.00
2023-02-03T13:57:35.140Z,8.00
2023-02-03T14:00:06.632Z,8.00
2023-02-03T14:02:45.384Z,7.90
2023-02-03T14:05:38.696Z,8.00
2023-02-03T14:08:30.173Z,8.00
2023-02-03T14:11:34.487Z,8.00
2023-02-03T14:14:07.318Z,8.00
2023-02-03T14:16:44.004Z,8.00
2023-02-03T14:19:33.754Z,8.00
2023-02-03T14:22:15.342Z,8.00
2023-02-03T14:24:44.955Z,8.00
2023-02-03T14:27:26.225Z,8.00
2023-02-03T14:30:07.072Z,8.00
2023-02-03T14:32:57.770Z,8.00
2023-02-03T14:35:32.806Z,7.90
2023-02-03T14:38:04.865Z,7.90
2023-02-03T14:40:34.500Z,7.90
2023-02-03T14:43:11.746Z,7.90
2023-02-03T14:45:57.670Z,7.90
2023-02-03T14:48:46.251Z,7.90
2023-02-03T14:51:29.923Z,7.90
2023-02-03T14:54:10.073Z,7.90
2023-02-03T14:57:07.978Z,7.80
2023-02-03T14:59:46.077Z,7.80
2023-02-03T15:02:20.611Z,7.90
2023-02-03T15:04:50.171Z,7.80
2023-02-03T15:07:44.535Z,7.80
2023-02-03T15:10:21.988Z,7.80
2023-02-03T15:12:53.320Z,7.80
2023-02-03T15:15:30.203Z,7.80
2023-02-03T15:17:59.590Z,7.80
2023-02-03T15:20:38.742Z,7.80
2023-02-03T15:23:27.106Z,7.80
2023-02-03T15:25:58.401Z,7.80
2023-02-03T15:28:25.859Z,7.80
2023-02-03T15:30:57.152Z,7.80
2023-02-03T15:33:24.038Z,7.90
2023-02-03T15:35:54.621Z,7.80
2023-02-03T15:38:44.786Z,7.90
2023-02-03T15:41:20.280Z,7.90
2023-02-03T15:43:47.208Z,7.90
2023-02-03T15:46:24.200Z,7.90
2023-02-03T15:49:06.955Z,7.80
2023-02-03T15:51:41.428Z,7.90
2023-02-03T15:54:20.311Z,7.90
2023-02-03T15:56:54.966Z,7.90
2023-02-03T15:59:42.422Z,7.80
2023-02-03T16:02:15.038Z,7.80
2023-02-03T16:04:41.834Z,7.80
2023-02-03T16:07:16.755Z,7.80
2023-02-03T16:09:43.462Z,7.80
2023-02-03T16:12:17.755Z,7.80
2023-02-03T16:14:44.628Z,7.80
2023-02-03T16:17:20.421Z,7.80
2023-02-03T16:19:51.326Z,7.70
2023-02-03T16:22:31.575Z,7.80
2023-02-03T16:25:12.117Z,7.70
2023-02-03T16:27:38.931Z,7.70
2023-02-03T16:30:24.237Z,7.80
2023-02-03T16:33:27.502Z,7.70
2023-02-03T16:36:13.851Z,7.70
2023-02-03T16:39:09.060Z,7.70
2023-02-03T16:41:55.246Z,7.70
2023-02-03T16:44:40.457Z,7.70
2023-02-03T16:47:45.604Z,7.70
2023-02-03T16:50:39.738Z,7.70
2023-02-03T16:53:11.480Z,7.80
2023-02-03T16:55:38.133Z,7.80
2023-02-03T16:58:04.790Z,7.80
2023-02-03T17:00:31.490Z,7.80
2023-02-03T17:02:58.788Z,7.70
2023-02-03T17:05:25.511Z,7.70
2023-02-03T17:07:52.186Z,7.80
2023-02-03T17:10:18.883Z,7.70
2023-02-03T17:12:45.531Z,7.70
2023-02-03T17:15:12.264Z,7.70
2023-02-03T17:17:39.135Z,7.70
2023-02-03T17:20:06.262Z,7.70
2023-02-03T17:22:33.885Z,7.70
2023-02-03T17:25:00.592Z,7.70
2023-02-03T17:27:27.250Z,7.70
2023-02-03T17:29:53.947Z,7.70
2023-02-03T17:32:20.706Z,7.70
2023-02-03T17:34:47.358Z,7.70
2023-02-03T17:37:14.082Z,7.70
2023-02-03T17:53:23.134Z,7.70
2023-02-03T17:55:49.996Z,7.70
2023-02-03T17:58:16.666Z,7.70
2023-02-03T18:00:43.337Z,7.80
2023-02-03T18:03:10.088Z,7.70
2023-02-03T18:05:38.209Z,7.70
2023-02-03T18:08:15.976Z,7.80
2023-02-03T18:10:43.278Z,7.80
2023-02-03T18:13:10.447Z,7.80
2023-02-03T18:15:38.373Z,7.80
2023-02-03T18:18:05.141Z,7.80
2023-02-03T18:20:31.864Z,7.80
2023-02-03T18:22:58.695Z,7.80
2023-02-03T18:25:25.364Z,7.80
2023-02-03T18:27:52.214Z,7.80
2023-02-03T18:30:21.423Z,7.90
2023-02-03T18:32:51.825Z,7.80
2023-02-03T18:35:18.730Z,7.80
2023-02-03T18:37:45.465Z,7.90
2023-02-03T18:40:12.216Z,7.90
2023-02-03T18:42:38.918Z,7.80
2023-02-03T18:45:06.331Z,7.90
2023-02-03T18:47:33.462Z,7.90
2023-02-03T18:50:12.912Z,7.90
2023-02-03T18:52:39.615Z,7.90
2023-02-03T18:55:06.703Z,7.90
2023-02-03T18:57:33.386Z,7.90
2023-02-03T19:00:00.180Z,7.90
2023-02-03T19:02:28.022Z,7.90
2023-02-03T19:04:54.811Z,7.90
2023-02-03T19:07:21.454Z,7.90
2023-02-03T19:09:48.136Z,7.80
2023-02-03T19:12:14.820Z,7.80
2023-02-03T19:14:41.473Z,7.80
2023-02-03T19:17:10.073Z,7.80
2023-02-03T19:19:36.853Z,7.90
2023-02-03T19:22:03.538Z,7.90
2023-02-03T19:24:30.231Z,7.90
2023-02-03T19:26:57.083Z,7.90
2023-02-03T19:29:26.807Z,7.80
2023-02-03T19:31:53.681Z,7.80
2023-02-03T19:34:20.449Z,7.80
2023-02-03T19:36:47.184Z,7.80
2023-02-03T19:39:14.446Z,7.80
2023-02-03T19:41:41.200Z,7.70
2023-02-03T19:44:07.984Z,7.70
2023-02-03T19:46:37.806Z,7.60
2023-02-03T19:49:11.069Z,7.60
2023-02-03T19:51:37.815Z,7.70
2023-02-03T19:54:04.578Z,7.70
2023-02-03T19:56:31.317Z,7.70
2023-02-03T19:58:58.845Z,7.60
2023-02-03T20:01:25.626Z,7.60
2023-02-03T20:03:52.346Z,7.60
2023-02-03T20:06:19.128Z,7.60
2023-02-03T20:08:45.924Z,7.60
2023-02-03T20:11:13.168Z,7.70
2023-02-03T20:13:40.637Z,7.70
2023-02-03T20:16:07.458Z,7.70
2023-02-03T20:18:34.187Z,7.70
2023-02-03T20:21:00.887Z,7.70
2023-02-03T20:23:27.536Z,7.70
2023-02-03T20:25:54.732Z,7.70
2023-02-03T20:28:25.525Z,7.70
2023-02-03T20:30:53.222Z,7.70
2023-02-03T20:33:20.153Z,7.70
2023-02-03T20:35:46.832Z,7.70
2023-02-03T20:38:15.433Z,7.70
2023-02-03T20:40:42.952Z,7.70
2023-02-03T20:43:25.035Z,7.70
2023-02-03T20:45:52.045Z,7.80
2023-02-03T20:48:20.324Z,7.80
2023-02-03T20:50:47.830Z,7.70
2023-02-03T20:53:20.018Z,7.80
2023-02-03T20:55:47.032Z,7.80
2023-02-03T20:58:18.845Z,7.80
2023-02-03T21:00:45.941Z,7.80
2023-02-03T21:03:32.011Z,7.80
2023-02-03T21:05:58.722Z,7.80
2023-02-03T21:08:25.682Z,7.80
2023-02-03T21:10:52.412Z,7.80
2023-02-03T21:13:29.673Z,7.80
2023-02-03T21:16:02.556Z,7.80
2023-02-03T21:18:32.295Z,7.80
2023-02-03T21:20:59.165Z,7.80
2023-02-03T21:23:36.160Z,7.80
2023-02-03T21:26:13.102Z,7.80
2023-02-03T21:28:39.775Z,7.70
2023-02-03T21:31:13.683Z,7.70
2023-02-03T21:33:41.718Z,7.70
2023-02-03T21:36:19.953Z,7.70
2023-02-03T21:38:50.955Z,7.70
2023-02-03T21:41:19.061Z,7.70
2023-02-03T21:43:47.589Z,7.70
2023-02-03T21:46:19.266Z,7.70
2023-02-03T21:49:06.387Z,7.70
2023-02-03T21:51:38.115Z,7.70
2023-02-03T21:54:31.623Z,7.60
2023-02-03T21:56:58.479Z,7.60
2023-02-03T21:59:29.537Z,7.60
2023-02-03T22:01:59.741Z,7.60
2023-02-03T22:04:28.137Z,7.60
2023-02-03T22:06:55.093Z,7.70
2023-02-03T22:09:23.212Z,7.70
2023-02-03T22:11:50.251Z,7.60
2023-02-03T22:14:17.337Z,7.70
2023-02-03T22:16:44.297Z,7.70
2023-02-03T22:19:11.089Z,7.70
2023-02-03T22:21:37.874Z,7.60
2023-02-03T22:24:05.193Z,7.60
2023-02-03T22:26:31.928Z,7.60
2023-02-03T22:28:58.644Z,7.60
2023-02-03T22:31:25.507Z,7.60
2023-02-03T22:33:52.233Z,7.60
2023-02-03T22:36:18.993Z,7.60
2023-02-03T22:38:45.717Z,7.60
2023-02-03T22:41:12.914Z,7.60
2023-02-03T22:43:40.012Z,7.60
2023-02-03T22:46:07.197Z,7.60
2023-02-03T22:48:34.246Z,7.60
2023-02-03T22:51:01.385Z,7.60
2023-02-03T22:53:28.252Z,7.70
2023-02-03T22:55:55.061Z,7.70
2023-02-03T22:58:21.824Z,7.70
2023-02-03T23:00:48.526Z,7.70
2023-02-03T23:03:15.230Z,7.70
2023-02-03T23:05:41.955Z,7.70
2023-02-03T23:08:09.598Z,7.80
2023-02-03T23:10:36.412Z,7.70
2023-02-03T23:13:03.187Z,7.70
2023-02-03T23:15:29.988Z,7.70
2023-02-03T23:17:56.772Z,7.70
2023-02-03T23:20:23.523Z,7.70
2023-02-03T23:22:50.268Z,7.80
2023-02-03T23:25:17.062Z,7.70
2023-02-03T23:27:43.779Z,7.70
2023-02-03T23:30:11.102Z,7.70
2023-02-03T23:32:37.830Z,7.70
2023-02-03T23:35:23.490Z,7.70
2023-02-03T23:37:50.207Z,7.70
2023-02-03T23:40:17.200Z,7.70
2023-02-03T23:42:43.968Z,7.70
2023-02-03T23:45:12.098Z,7.60
2023-02-03T23:47:42.790Z,7.60
2023-02-03T23:50:10.097Z,7.50
2023-02-03T23:52:37.091Z,7.50
2023-02-03T23:55:05.603Z,7.60
2023-02-03T23:57:32.379Z,7.60
2023-02-03T23:59:59.249Z,7.60
